Time;durP1;ratioP1;P1;durP2;ratioP2;P2;SDS_P1;SDS_P2;PMS_P1;PMS_P2;Temp;Humidity;BMP_temperature;BMP_pressure;BME280_temperature;BME280_humidity;BME280_pressure;Samples;Min_cycle;Max_cycle;Signal;HPM_P1;HPM_P2
2022/12/27 00:01:59;;;;;;;5.53;2.10;;;;;;;18.83;36.79;102101.34;5000868;28;20470;-68
2022/12/27 00:04:25;;;;;;;4.90;2.15;;;;;;;18.81;36.71;102105.03;5004723;28;20041;-70
2022/12/27 00:06:50;;;;;;;5.10;2.05;;;;;;;18.79;36.38;102109.56;5004915;28;20030;-71
2022/12/27 00:09:15;;;;;;;5.78;2.15;;;;;;;18.75;36.62;102102.75;4986193;28;20326;-72
2022/12/27 00:11:40;;;;;;;5.15;1.90;;;;;;;18.75;36.40;102105.41;4985616;28;20034;-69
2022/12/27 00:14:06;;;;;;;4.88;1.92;;;;;;;18.74;36.68;102116.91;4985303;28;20916;-70
2022/12/27 00:16:32;;;;;;;3.72;1.80;;;;;;;18.71;36.32;102112.69;4997017;28;20091;-70
2022/12/27 00:18:58;;;;;;;5.22;2.25;;;;;;;18.75;36.55;102119.44;4990153;28;20034;-71
2022/12/27 00:21:24;;;;;;;4.22;1.80;;;;;;;18.69;36.27;102109.28;5004504;28;20095;-70
2022/12/27 00:23:52;;;;;;;4.80;2.08;;;;;;;18.70;36.30;102116.25;4992256;28;20165;-70
2022/12/27 00:26:21;;;;;;;5.10;2.05;;;;;;;18.65;36.19;102121.84;4989874;28;20089;-72
2022/12/27 00:28:47;;;;;;;5.53;2.13;;;;;;;18.65;36.53;102115.72;4988511;28;20031;-69
2022/12/27 00:31:13;;;;;;;5.03;1.88;;;;;;;18.62;36.14;102111.47;4988371;28;20394;-72
2022/12/27 00:33:39;;;;;;;5.60;2.20;;;;;;;18.61;36.07;102111.56;4985129;28;20046;-70
2022/12/27 00:36:07;;;;;;;4.97;2.17;;;;;;;18.61;36.54;102115.06;4985772;28;20116;-69
2022/12/27 00:38:33;;;;;;;5.63;1.88;;;;;;;18.62;36.06;102108.00;5004250;28;20398;-69
2022/12/27 00:40:59;;;;;;;5.85;2.15;;;;;;;18.58;36.12;102104.69;5003207;28;20034;-72
2022/12/27 00:43:24;;;;;;;6.45;2.38;;;;;;;18.56;36.32;102117.13;5003747;28;20136;-69
2022/12/27 00:45:49;;;;;;;7.07;2.05;;;;;;;18.58;36.05;102115.25;5004334;28;20482;-70
2022/12/27 00:48:15;;;;;;;4.10;1.80;;;;;;;18.57;36.53;102121.47;4987111;28;20030;-70
2022/12/27 00:50:41;;;;;;;6.85;2.13;;;;;;;18.55;36.19;102118.09;4990453;28;20046;-72
2022/12/27 00:53:07;;;;;;;5.45;1.90;;;;;;;18.55;36.22;102125.16;4994425;28;20030;-69
2022/12/27 00:55:33;;;;;;;6.10;2.45;;;;;;;18.52;36.05;102113.00;4991319;28;20104;-69
2022/12/27 00:57:58;;;;;;;6.95;2.40;;;;;;;18.52;36.15;102128.84;4988876;28;20034;-69
2022/12/27 01:00:24;;;;;;;5.35;2.13;;;;;;;18.48;36.34;102138.75;4998720;28;20542;-69
2022/12/27 01:02:49;;;;;;;4.47;1.88;;;;;;;18.47;36.16;102137.06;4990241;28;20030;-69
2022/12/27 01:05:15;;;;;;;4.50;1.90;;;;;;;18.46;36.21;102145.91;4991685;28;20030;-72
2022/12/27 01:07:40;;;;;;;6.20;2.20;;;;;;;18.46;36.29;102147.69;4989352;28;20493;-69
2022/12/27 01:10:05;;;;;;;5.13;2.20;;;;;;;18.45;36.32;102146.00;4992601;28;20034;-71
2022/12/27 01:12:31;;;;;;;5.10;1.98;;;;;;;18.41;36.46;102150.63;4984259;28;20264;-72
2022/12/27 01:14:56;;;;;;;4.88;1.75;;;;;;;18.43;36.46;102159.28;4996747;28;20118;-71
2022/12/27 01:17:21;;;;;;;5.72;1.95;;;;;;;18.46;36.27;102167.03;4987397;28;20034;-69
2022/12/27 01:19:47;;;;;;;5.13;1.83;;;;;;;18.43;36.40;102164.56;4984055;28;20470;-68
2022/12/27 01:22:12;;;;;;;4.93;2.10;;;;;;;18.43;36.02;102161.09;4985309;28;20076;-69
2022/12/27 01:24:37;;;;;;;6.22;1.92;;;;;;;18.41;36.15;102163.81;4991103;28;20034;-68
2022/12/27 01:27:03;;;;;;;6.07;1.90;;;;;;;18.42;36.16;102167.31;5003530;28;20382;-71
2022/12/27 01:29:28;;;;;;;5.55;1.95;;;;;;;18.40;36.27;102167.38;4986005;28;20037;-70
2022/12/27 01:31:53;;;;;;;5.82;2.22;;;;;;;18.40;36.37;102167.38;4984940;28;20107;-72
2022/12/27 01:34:18;;;;;;;5.47;1.92;;;;;;;18.39;36.09;102168.34;4982296;28;20034;-72
2022/12/27 01:36:44;;;;;;;5.50;2.08;;;;;;;18.40;36.01;102174.47;4985178;28;20046;-73
2022/12/27 01:39:11;;;;;;;5.60;1.92;;;;;;;18.39;36.07;102173.63;4988777;28;20054;-70
2022/12/27 01:44:42;;;;;;;5.30;2.00;;;;;;;18.37;36.21;102180.78;5000440;28;20473;-70
2022/12/27 01:47:26;;;;;;;5.68;2.10;;;;;;;18.37;36.38;102177.31;4983268;28;20026;-70
2022/12/27 01:49:54;;;;;;;5.85;1.98;;;;;;;18.36;36.18;102178.22;4998576;28;20474;-71
2022/12/27 01:52:22;;;;;;;7.03;2.28;;;;;;;18.33;36.07;102175.81;4999990;28;20041;-70
2022/12/27 01:54:48;;;;;;;4.50;1.70;;;;;;;18.34;36.03;102185.41;5000727;28;20037;-69
2022/12/27 01:57:13;;;;;;;4.32;1.88;;;;;;;18.31;36.20;102186.47;4983889;28;20041;-69
2022/12/27 01:59:39;;;;;;;5.30;2.00;;;;;;;18.28;36.22;102187.47;4983549;28;20038;-69
2022/12/27 02:02:04;;;;;;;4.93;1.98;;;;;;;18.27;36.07;102190.22;4991702;28;20073;-71
2022/12/27 02:04:30;;;;;;;6.05;2.00;;;;;;;18.30;36.28;102205.84;4983570;28;20046;-69
2022/12/27 02:06:57;;;;;;;4.47;1.70;;;;;;;18.31;36.22;102210.22;4986827;28;20034;-69
2022/12/27 02:09:36;;;;;;;6.00;1.90;;;;;;;18.28;36.23;102210.38;4989555;28;20754;-71
2022/12/27 02:12:05;;;;;;;5.05;1.83;;;;;;;18.28;36.50;102210.38;4983501;28;20089;-70
2022/12/27 02:14:34;;;;;;;4.68;1.60;;;;;;;18.24;36.11;102208.88;4984199;28;20045;-69
2022/12/27 02:17:05;;;;;;;4.60;1.73;;;;;;;18.23;36.33;102213.31;4983667;28;20038;-69
2022/12/27 02:19:40;;;;;;;4.50;1.70;;;;;;;18.23;36.50;102207.16;4995405;28;20088;-69
2022/12/27 02:22:24;;;;;;;4.00;1.70;;;;;;;18.26;36.42;102207.84;4982916;28;20113;-69
2022/12/27 02:25:31;;;;;;;4.43;1.53;;;;;;;18.24;36.10;102209.72;4983008;28;20042;-72
2022/12/27 02:28:30;;;;;;;5.28;1.90;;;;;;;18.24;36.15;102211.50;4960451;28;20185;-69
2022/12/27 02:31:05;;;;;;;4.32;2.10;;;;;;;18.17;36.12;102208.38;4986345;28;20031;-71
2022/12/27 02:33:36;;;;;;;4.25;1.52;;;;;;;18.22;36.31;102221.31;4982988;28;20034;-70
2022/12/27 02:36:10;;;;;;;5.22;1.73;;;;;;;18.17;36.06;102213.66;4983519;28;20050;-69
2022/12/27 02:38:41;;;;;;;5.43;2.10;;;;;;;18.19;36.39;102222.34;4989105;28;20033;-72
2022/12/27 02:58:50;;;;;;;4.13;1.50;;;;;;;18.10;36.17;102214.97;4991583;28;20080;-69
2022/12/27 03:04:22;;;;;;;5.65;1.60;;;;;;;18.12;36.06;102207.81;4975798;28;20133;-72
2022/12/27 03:07:03;;;;;;;4.10;1.50;;;;;;;18.12;36.52;102218.38;4982480;28;20050;-68
2022/12/27 03:15:56;;;;;;;3.88;1.30;;;;;;;18.04;36.44;102203.00;4982010;28;20049;-69
2022/12/27 03:18:29;;;;;;;4.63;1.67;;;;;;;18.09;36.63;102210.66;4982272;28;20131;-70
2022/12/27 03:26:32;;;;;;;4.53;1.42;;;;;;;18.03;36.20;102211.84;4982314;28;20081;-71
2022/12/27 03:34:38;;;;;;;4.35;1.80;;;;;;;18.05;36.41;102233.69;4981524;28;20886;-70
2022/12/27 03:40:09;;;;;;;5.05;1.75;;;;;;;18.04;36.37;102247.84;4989629;28;20045;-71
2022/12/27 03:48:22;;;;;;;4.85;1.60;;;;;;;18.03;36.46;102248.78;4989997;28;20107;-70
2022/12/27 03:50:55;;;;;;;4.20;1.40;;;;;;;18.00;36.48;102248.97;4987256;28;20038;-70
2022/12/27 03:53:30;;;;;;;4.67;1.63;;;;;;;17.99;36.60;102244.63;4994975;28;20494;-70
2022/12/27 03:55:56;;;;;;;3.88;1.50;;;;;;;17.98;36.42;102252.63;5001284;28;20298;-70
2022/12/27 03:58:21;;;;;;;4.38;1.58;;;;;;;18.02;36.66;102256.78;4993330;28;20038;-72
2022/12/27 04:00:47;;;;;;;3.47;1.30;;;;;;;18.01;36.33;102260.34;4986671;28;20035;-69
2022/12/27 04:03:12;;;;;;;3.85;1.38;;;;;;;17.95;36.32;102254.50;4995522;28;20381;-70
2022/12/27 04:05:37;;;;;;;4.38;1.60;;;;;;;17.97;36.29;102256.22;5001182;28;20037;-69
2022/12/27 04:35:22;;;;;;;5.10;1.50;;;;;;;17.90;36.26;102258.34;4989204;28;20061;-69
2022/12/27 04:37:47;;;;;;;6.10;1.60;;;;;;;17.93;36.77;102258.19;4991953;28;20034;-70
2022/12/27 04:56:41;;;;;;;4.43;1.33;;;;;;;17.87;36.49;102266.41;4996871;28;20040;-69
2022/12/27 05:02:03;;;;;;;3.53;1.10;;;;;;;17.87;36.68;102285.72;5003815;28;20036;-72
2022/12/27 05:04:31;;;;;;;4.22;1.38;;;;;;;17.87;36.41;102280.44;4996193;28;20046;-71
2022/12/27 05:06:58;;;;;;;4.25;1.30;;;;;;;17.86;36.30;102284.00;4997259;28;20025;-69
2022/12/27 05:14:53;;;;;;;3.55;1.20;;;;;;;17.86;36.21;102280.53;4984482;28;20037;-70
2022/12/27 05:17:19;;;;;;;4.20;1.30;;;;;;;17.84;36.27;102285.06;4992234;28;20034;-69
2022/12/27 05:19:44;;;;;;;3.65;1.10;;;;;;;17.83;36.30;102278.06;5003922;28;20470;-69
2022/12/27 05:27:37;;;;;;;3.63;1.25;;;;;;;17.80;36.53;102280.88;4995589;28;20060;-70
2022/12/27 05:30:03;;;;;;;5.45;1.60;;;;;;;17.80;36.45;102287.03;4993870;28;20088;-71
2022/12/27 05:32:28;;;;;;;4.30;1.33;;;;;;;17.84;36.68;102298.22;4988025;28;20435;-70
2022/12/27 05:34:53;;;;;;;4.68;1.10;;;;;;;17.81;36.37;102301.03;5003120;28;20536;-69
2022/12/27 05:37:19;;;;;;;4.68;1.60;;;;;;;17.82;36.69;102305.41;4983994;28;20113;-71
2022/12/27 05:39:44;;;;;;;3.95;1.25;;;;;;;17.81;36.78;102319.50;4984073;28;20037;-71
2022/12/27 05:42:09;;;;;;;4.72;1.10;;;;;;;17.80;36.70;102312.53;4983787;28;20037;-72
2022/12/27 05:44:34;;;;;;;4.95;1.30;;;;;;;17.85;37.11;102321.00;4997859;28;20039;-70
2022/12/27 05:47:00;;;;;;;4.22;1.08;;;;;;;17.87;37.38;102332.34;4992290;28;20041;-70
2022/12/27 05:49:25;;;;;;;4.30;1.10;;;;;;;17.90;37.31;102332.22;4992497;28;20036;-69
2022/12/27 05:51:50;;;;;;;3.63;1.10;;;;;;;17.89;37.68;102320.78;5003005;28;20038;-73
2022/12/27 05:54:16;;;;;;;3.00;1.08;;;;;;;17.95;37.54;102333.63;4986858;28;20282;-73
2022/12/27 05:56:41;;;;;;;4.28;1.20;;;;;;;17.96;37.57;102326.59;5003032;28;20762;-69
2022/12/27 05:59:06;;;;;;;4.70;1.23;;;;;;;18.01;37.45;102334.22;4992389;28;20048;-69
2022/12/27 06:01:32;;;;;;;3.22;1.00;;;;;;;18.06;37.60;102338.28;4986541;28;20034;-73
2022/12/27 06:03:58;;;;;;;3.70;1.10;;;;;;;18.08;37.45;102341.69;4996362;28;20041;-72
2022/12/27 06:06:23;;;;;;;3.97;1.08;;;;;;;18.09;37.46;102343.41;4996518;28;20042;-70
2022/12/27 06:08:49;;;;;;;3.55;1.20;;;;;;;18.15;37.04;102351.91;4983338;28;20777;-68
2022/12/27 06:11:17;;;;;;;2.70;1.10;;;;;;;18.16;37.35;102343.88;4998717;28;20397;-70
2022/12/27 06:13:47;;;;;;;2.83;1.10;;;;;;;18.16;37.45;102345.69;5001238;28;20030;-72
2022/12/27 06:16:13;;;;;;;4.03;1.40;;;;;;;18.19;37.44;102338.44;4990239;28;20041;-69
2022/12/27 06:18:39;;;;;;;3.33;1.15;;;;;;;18.25;37.30;102347.81;4985616;28;20030;-71
2022/12/27 06:21:14;;;;;;;2.90;0.93;;;;;;;18.25;37.04;102335.44;5002177;28;20038;-71
2022/12/27 06:23:41;;;;;;;3.15;0.88;;;;;;;18.26;37.13;102331.88;4998698;28;20483;-69
2022/12/27 06:26:11;;;;;;;3.58;0.93;;;;;;;18.30;37.09;102340.47;4992144;28;20069;-69
2022/12/27 06:28:37;;;;;;;4.95;1.20;;;;;;;18.31;37.29;102334.25;5001308;28;20045;-69
2022/12/27 06:31:02;;;;;;;3.22;0.90;;;;;;;18.33;37.01;102337.63;4989201;28;20049;-70
2022/12/27 06:33:28;;;;;;;3.70;1.05;;;;;;;18.36;37.02;102349.78;4983233;28;20030;-71
2022/12/27 06:35:54;;;;;;;3.70;1.10;;;;;;;18.39;37.29;102354.88;4992910;28;20076;-69
2022/12/27 06:38:19;;;;;;;4.55;1.10;;;;;;;18.40;37.31;102351.31;5002681;28;20566;-72
2022/12/27 06:40:45;;;;;;;2.63;1.10;;;;;;;18.39;36.95;102346.97;5002110;28;20053;-69
2022/12/27 06:43:10;;;;;;;5.78;1.40;;;;;;;18.43;37.08;102345.88;5002252;28;20030;-70
2022/12/27 06:45:36;;;;;;;2.72;1.00;;;;;;;18.39;37.37;102345.19;5002497;28;20381;-70
2022/12/27 06:48:01;;;;;;;3.67;1.10;;;;;;;18.45;37.06;102349.25;5000841;28;20233;-71
2022/12/27 06:50:26;;;;;;;2.78;1.00;;;;;;;18.43;37.17;102346.69;4998987;28;20037;-71
2022/12/27 06:52:52;;;;;;;3.47;0.90;;;;;;;18.43;37.17;102343.22;4985495;28;20906;-70
2022/12/27 06:55:17;;;;;;;5.05;1.30;;;;;;;18.46;37.34;102351.81;4987286;28;20275;-72
2022/12/27 06:57:42;;;;;;;4.43;1.02;;;;;;;18.48;37.46;102351.72;5001643;28;20037;-70
2022/12/27 07:00:08;;;;;;;3.45;1.20;;;;;;;18.48;37.79;102344.66;4982143;28;20030;-69
2022/12/27 07:02:33;;;;;;;4.28;1.20;;;;;;;18.48;37.91;102346.44;4982491;28;20045;-71
2022/12/27 07:04:59;;;;;;;6.32;1.48;;;;;;;18.49;37.73;102356.91;4996892;28;20044;-71
2022/12/27 07:07:24;;;;;;;3.83;1.27;;;;;;;18.54;37.77;102353.16;4990596;28;20033;-68
2022/12/27 07:09:50;;;;;;;3.28;1.02;;;;;;;18.55;38.17;102355.72;4997950;28;20030;-70
2022/12/27 07:12:15;;;;;;;5.47;1.40;;;;;;;18.54;38.22;102355.81;4987082;28;20153;-73
2022/12/27 07:14:40;;;;;;;4.53;1.10;;;;;;;18.55;38.24;102361.00;4983518;28;20450;-71
2022/12/27 07:17:05;;;;;;;4.40;1.40;;;;;;;18.56;38.62;102359.19;4983806;28;20045;-70
2022/12/27 07:19:31;;;;;;;4.55;1.38;;;;;;;18.55;38.67;102363.63;4996710;28;20037;-72
2022/12/27 07:21:56;;;;;;;3.83;1.20;;;;;;;18.56;38.54;102365.31;4988209;28;20061;-71
2022/12/27 07:24:21;;;;;;;3.78;1.17;;;;;;;18.54;38.96;102366.34;4987755;28;20034;-72
2022/12/27 07:26:47;;;;;;;5.20;1.05;;;;;;;18.54;39.00;102372.47;4992181;28;20026;-72
2022/12/27 07:29:12;;;;;;;4.75;1.42;;;;;;;18.52;38.85;102371.72;4997270;28;20470;-72
2022/12/27 07:31:39;;;;;;;3.47;1.17;;;;;;;18.54;39.32;102371.63;4994488;28;20070;-71
2022/12/27 07:34:04;;;;;;;4.75;1.42;;;;;;;18.53;39.23;102372.56;4984647;28;20734;-70
2022/12/27 07:36:36;;;;;;;2.72;0.95;;;;;;;18.55;39.55;102378.59;4982229;28;21004;-71
2022/12/27 07:39:01;;;;;;;4.90;1.42;;;;;;;18.54;39.28;102375.13;4997861;28;20033;-72
2022/12/27 07:41:27;;;;;;;3.72;1.20;;;;;;;18.56;39.68;102377.66;4999743;28;20033;-71
2022/12/27 07:43:52;;;;;;;4.28;1.23;;;;;;;18.55;39.54;102382.09;4992800;28;20154;-73
2022/12/27 07:46:20;;;;;;;4.20;1.20;;;;;;;18.57;39.50;102380.22;4993371;28;20034;-72
2022/12/27 07:48:46;;;;;;;5.20;1.42;;;;;;;18.56;39.81;102380.31;4990650;28;20117;-71
2022/12/27 07:51:13;;;;;;;4.80;1.27;;;;;;;18.60;39.90;102387.13;4981694;28;20038;-70
2022/12/27 07:53:38;;;;;;;5.43;1.40;;;;;;;18.58;40.15;102383.69;4981441;28;20042;-71
2022/12/27 07:56:08;;;;;;;5.63;1.42;;;;;;;18.61;40.31;102383.53;4982040;28;20038;-70
2022/12/27 07:58:41;;;;;;;6.28;1.40;;;;;;;18.58;40.12;102378.41;4996826;28;20030;-72
2022/12/27 08:01:08;;;;;;;4.67;1.10;;;;;;;18.62;40.37;102382.59;5001221;28;20056;-72
2022/12/27 08:03:34;;;;;;;6.63;1.80;;;;;;;18.62;40.35;102386.06;4998530;28;20070;-71
2022/12/27 08:05:59;;;;;;;5.57;1.30;;;;;;;18.60;40.63;102384.47;4999002;28;20038;-73
2022/12/27 08:08:30;;;;;;;4.88;1.20;;;;;;;18.65;40.47;102388.53;5001314;28;20033;-70
2022/12/27 08:10:56;;;;;;;5.38;1.30;;;;;;;18.68;40.57;102395.44;4981872;28;20125;-72
2022/12/27 08:13:21;;;;;;;4.88;1.30;;;;;;;18.65;41.03;102395.63;4996965;28;20256;-71
2022/12/27 08:15:54;;;;;;;4.30;1.52;;;;;;;18.68;41.06;102406.00;4994174;28;20042;-73
2022/12/27 08:18:19;;;;;;;4.67;1.20;;;;;;;18.68;40.87;102398.91;4985171;28;20129;-71
2022/12/27 08:20:45;;;;;;;5.18;1.40;;;;;;;18.66;40.78;102400.81;4996589;28;20034;-72
2022/12/27 08:23:10;;;;;;;5.55;1.38;;;;;;;18.71;40.84;102407.59;5000684;28;20036;-70
2022/12/27 08:25:35;;;;;;;3.97;1.23;;;;;;;18.71;41.19;102410.22;4989650;28;20069;-72
2022/12/27 08:28:08;;;;;;;5.38;1.60;;;;;;;18.72;41.06;102420.69;4999599;28;20278;-72
2022/12/27 08:30:34;;;;;;;5.13;1.42;;;;;;;18.68;40.77;102420.03;5000690;28;20044;-72
2022/12/27 08:33:01;;;;;;;5.28;1.17;;;;;;;18.72;40.88;102428.63;4993548;28;20034;-72
2022/12/27 08:35:26;;;;;;;4.22;1.30;;;;;;;18.73;40.99;102425.06;4999764;28;20054;-73
2022/12/27 08:37:51;;;;;;;6.65;1.20;;;;;;;18.64;41.29;102409.75;4983879;28;20030;-73
2022/12/27 08:40:16;;;;;;;6.57;2.77;;;;;;;18.72;41.27;102418.06;4992755;28;20926;-73
2022/12/27 08:42:42;;;;;;;4.70;1.20;;;;;;;18.74;41.18;102412.69;4992564;28;20271;-71
2022/12/27 08:45:07;;;;;;;6.20;1.17;;;;;;;18.70;41.36;102401.47;4999360;28;20961;-70
2022/12/27 08:47:33;;;;;;;5.25;1.40;;;;;;;18.68;41.33;102395.44;5004198;28;20030;-71
2022/12/27 08:49:58;;;;;;;6.15;1.52;;;;;;;18.71;41.15;102394.38;4992619;28;20117;-72
2022/12/27 08:52:24;;;;;;;7.15;1.50;;;;;;;18.77;40.90;102401.94;4992593;28;20109;-70
2022/12/27 08:54:49;;;;;;;4.30;1.23;;;;;;;18.73;40.90;102392.53;4998644;28;20092;-69
2022/12/27 08:57:15;;;;;;;5.13;1.20;;;;;;;18.73;41.00;102401.28;4996242;28;20475;-70
2022/12/27 08:59:40;;;;;;;8.80;1.75;;;;;;;18.79;40.96;102408.00;4989147;28;20101;-70
2022/12/27 09:02:05;;;;;;;7.68;1.30;;;;;;;18.80;41.20;102412.34;4984092;28;20050;-71
2022/12/27 09:04:31;;;;;;;4.50;1.23;;;;;;;18.77;41.00;102405.47;4990633;28;20121;-69
2022/12/27 09:06:56;;;;;;;5.75;1.40;;;;;;;18.82;41.15;102415.75;4992175;28;20473;-71
2022/12/27 09:09:22;;;;;;;5.85;1.30;;;;;;;18.81;41.11;102409.59;4998726;28;20069;-69
2022/12/27 09:11:47;;;;;;;6.00;1.37;;;;;;;18.80;41.43;102405.28;4992889;28;20379;-73
2022/12/27 09:14:12;;;;;;;5.03;1.30;;;;;;;18.85;41.18;102403.25;4999576;28;20295;-69
2022/12/27 09:16:38;;;;;;;4.72;1.50;;;;;;;18.87;40.81;102405.78;4993924;28;20034;-70
2022/12/27 09:19:04;;;;;;;4.53;1.20;;;;;;;18.89;40.94;102409.19;4992140;28;20042;-70
2022/12/27 09:21:31;;;;;;;3.83;1.30;;;;;;;18.89;41.18;102403.06;5000623;28;20030;-70
2022/12/27 09:23:57;;;;;;;4.80;1.58;;;;;;;18.89;41.05;102406.53;5000982;28;20034;-70
2022/12/27 09:26:25;;;;;;;7.68;2.00;;;;;;;18.91;41.07;102409.09;4997068;28;20085;-71
2022/12/27 09:28:53;;;;;;;6.70;1.80;;;;;;;18.90;40.87;102408.25;4988317;28;20132;-69
2022/12/27 09:31:20;;;;;;;5.32;1.50;;;;;;;18.93;41.01;102412.47;4987974;28;20895;-69
2022/12/27 09:33:46;;;;;;;6.47;1.35;;;;;;;18.97;41.51;102416.66;4990095;28;20037;-72
2022/12/27 09:36:13;;;;;;;4.45;1.33;;;;;;;18.96;40.87;102420.22;4997248;28;20407;-73
2022/12/27 09:38:39;;;;;;;5.75;1.52;;;;;;;18.95;41.12;102421.19;4989218;28;20035;-70
2022/12/27 09:41:20;;;;;;;6.18;1.17;;;;;;;18.97;41.28;102421.94;4996952;28;20061;-70
2022/12/27 09:43:58;;;;;;;5.55;1.40;;;;;;;19.01;41.01;102426.09;4998917;28;20390;-70
2022/12/27 09:46:31;;;;;;;5.97;1.30;;;;;;;18.99;41.06;102427.97;4992390;28;20042;-70
2022/12/27 09:48:56;;;;;;;4.65;1.20;;;;;;;19.00;41.09;102432.31;4997587;28;20034;-70
2022/12/27 09:51:30;;;;;;;7.50;1.65;;;;;;;18.97;41.34;102430.69;4995094;28;20096;-70
2022/12/27 09:54:10;;;;;;;5.03;1.40;;;;;;;18.95;41.07;102429.94;4992083;28;20100;-70
2022/12/27 09:56:36;;;;;;;6.15;1.42;;;;;;;18.93;41.09;102421.28;4993257;28;20064;-70
2022/12/27 09:59:20;;;;;;;6.28;1.52;;;;;;;18.89;41.25;102416.25;5003445;28;20081;-70
2022/12/27 10:01:47;;;;;;;6.13;1.48;;;;;;;18.93;41.09;102426.56;4988401;28;20034;-73
2022/12/27 10:04:16;;;;;;;5.50;1.27;;;;;;;18.91;41.30;102422.28;4983414;28;20044;-69
2022/12/27 10:06:47;;;;;;;4.90;1.73;;;;;;;18.88;41.22;102428.59;4988952;28;20054;-70
2022/12/27 10:09:48;;;;;;;4.68;1.27;;;;;;;18.87;41.22;102432.19;4986479;28;20791;-70
2022/12/27 10:12:19;;;;;;;6.00;1.25;;;;;;;18.87;41.16;102431.34;4983097;28;20030;-69
2022/12/27 10:15:04;;;;;;;5.93;2.05;;;;;;;18.80;41.67;102426.41;4992961;28;20034;-72
2022/12/27 10:17:53;;;;;;;6.35;1.50;;;;;;;18.81;41.73;102436.00;4993262;28;20426;-70
2022/12/27 10:20:24;;;;;;;5.85;1.35;;;;;;;18.81;41.60;102433.38;4986987;28;20097;-71
2022/12/27 10:22:53;;;;;;;3.88;1.23;;;;;;;18.81;41.67;102429.88;4989890;28;20533;-70
2022/12/27 10:25:22;;;;;;;5.63;1.48;;;;;;;18.78;41.44;102422.16;4989087;28;20038;-71
2022/12/27 10:27:52;;;;;;;4.53;1.50;;;;;;;18.78;41.59;102414.22;4984242;28;20058;-70
2022/12/27 10:30:20;;;;;;;7.05;1.40;;;;;;;18.85;41.78;102413.81;4984959;28;20196;-71
2022/12/27 10:32:47;;;;;;;5.47;1.58;;;;;;;18.88;41.87;102430.41;4985521;28;20136;-70
2022/12/27 10:35:15;;;;;;;4.43;1.55;;;;;;;18.82;42.17;102424.53;4996550;28;20054;-74
2022/12/27 10:37:41;;;;;;;4.43;1.15;;;;;;;18.83;41.96;102420.06;4985094;28;20045;-71
2022/12/27 10:40:18;;;;;;;6.15;1.73;;;;;;;18.85;41.76;102423.53;4986236;28;20049;-75
2022/12/27 10:43:01;;;;;;;6.05;1.77;;;;;;;18.80;41.91;102417.63;4995535;28;20078;-71
2022/12/27 10:45:38;;;;;;;5.25;1.33;;;;;;;18.83;42.13;102420.06;4994117;28;20038;-71
2022/12/27 10:48:12;;;;;;;5.63;1.30;;;;;;;18.83;42.25;102414.78;4985270;28;20034;-71
2022/12/27 10:50:43;;;;;;;4.72;1.48;;;;;;;18.84;42.22;102405.97;4988687;28;20422;-73
2022/12/27 10:53:27;;;;;;;4.55;1.50;;;;;;;18.90;42.17;102426.75;4990042;28;20041;-69
2022/12/27 10:56:05;;;;;;;7.00;1.60;;;;;;;18.94;42.09;102441.44;4999709;28;20038;-72
2022/12/27 10:58:33;;;;;;;6.78;1.60;;;;;;;18.96;41.85;102436.94;5001272;28;20045;-71
2022/12/27 11:00:58;;;;;;;6.28;1.88;;;;;;;18.94;41.98;102432.69;4993716;28;20038;-71
2022/12/27 11:03:25;;;;;;;6.50;1.60;;;;;;;18.95;42.07;102427.31;4995182;28;20871;-70
2022/12/27 11:06:05;;;;;;;5.53;1.42;;;;;;;18.98;41.81;102424.47;4986447;28;20034;-66
2022/12/27 11:08:31;;;;;;;3.97;1.27;;;;;;;19.01;41.83;102426.09;4980940;28;20078;-67
2022/12/27 11:11:15;;;;;;;5.47;1.50;;;;;;;19.02;41.90;102420.69;4992277;28;20458;-69
2022/12/27 11:13:41;;;;;;;6.40;1.48;;;;;;;19.01;41.82;102415.53;5001480;28;20033;-70
2022/12/27 11:16:14;;;;;;;4.53;1.52;;;;;;;19.01;42.13;102410.25;4988937;28;20101;-71
2022/12/27 11:18:45;;;;;;;6.28;1.55;;;;;;;18.99;42.07;102407.69;4991372;28;20030;-71
2022/12/27 11:21:12;;;;;;;5.20;1.40;;;;;;;19.02;41.69;102406.66;4996153;28;20493;-69
2022/12/27 11:23:44;;;;;;;3.58;1.13;;;;;;;19.06;41.68;102415.22;4996962;28;20045;-71
2022/12/27 11:26:24;;;;;;;6.28;1.40;;;;;;;19.06;41.55;102415.22;4985912;28;20038;-69
2022/12/27 11:28:53;;;;;;;4.05;1.25;;;;;;;19.04;41.28;102404.75;4988440;28;20034;-69
2022/12/27 11:31:32;;;;;;;3.55;1.25;;;;;;;19.08;41.39;102416.00;4986171;28;20034;-69
2022/12/27 11:34:04;;;;;;;3.60;1.30;;;;;;;19.07;41.50;102409.84;4990075;28;20034;-67
2022/12/27 11:36:39;;;;;;;3.75;1.00;;;;;;;19.06;41.07;102412.59;4983804;28;20060;-67
2022/12/27 11:39:06;;;;;;;3.78;1.25;;;;;;;19.06;41.12;102410.81;4986234;28;20700;-69
2022/12/27 11:41:46;;;;;;;4.25;1.35;;;;;;;19.04;41.17;102410.03;4981155;28;20030;-70
2022/12/27 11:44:28;;;;;;;5.38;1.30;;;;;;;19.07;41.24;102407.22;4981191;28;20037;-70
2022/12/27 11:47:00;;;;;;;6.57;1.30;;;;;;;19.08;41.13;102408.91;4981483;28;20058;-70
2022/12/27 11:49:31;;;;;;;4.38;1.25;;;;;;;19.08;41.12;102403.63;4982076;28;20070;-70
2022/12/27 11:52:35;;;;;;;4.15;1.30;;;;;;;19.11;41.31;102406.09;4984654;28;20533;-71
2022/12/27 11:55:38;;;;;;;3.93;1.50;;;;;;;19.11;41.13;102408.75;4994442;28;20042;-69
2022/12/27 11:58:15;;;;;;;4.35;1.30;;;;;;;19.06;41.12;102389.69;4998925;28;20030;-72
2022/12/27 12:00:41;;;;;;;6.47;1.25;;;;;;;19.10;41.04;102393.81;5002491;28;20034;-69
2022/12/27 12:03:48;;;;;;;3.37;1.40;;;;;;;19.12;40.88;102396.38;5003582;28;20389;-70
2022/12/27 12:06:36;;;;;;;4.30;1.38;;;;;;;19.12;40.91;102391.06;4997762;28;20026;-68
2022/12/27 12:09:24;;;;;;;4.95;1.20;;;;;;;19.07;40.98;102380.78;4984079;28;20038;-70
2022/12/27 12:11:49;;;;;;;3.53;1.25;;;;;;;19.10;40.92;102383.25;5002263;28;20096;-67
2022/12/27 12:14:23;;;;;;;5.63;1.53;;;;;;;19.09;40.87;102383.34;4995186;28;20042;-69
2022/12/27 12:17:11;;;;;;;5.15;1.60;;;;;;;19.07;41.00;102378.16;5001321;28;20310;-70
2022/12/27 12:19:59;;;;;;;4.47;1.35;;;;;;;19.07;40.81;102377.31;4991258;28;20044;-69
2022/12/27 12:22:38;;;;;;;3.28;1.33;;;;;;;19.06;40.91;102368.53;4987095;28;20129;-69
2022/12/27 12:25:25;;;;;;;4.50;1.60;;;;;;;19.01;40.68;102352.97;4984450;28;20386;-71
2022/12/27 12:28:02;;;;;;;5.63;1.50;;;;;;;19.05;40.67;102374.75;4991587;28;20029;-70
2022/12/27 12:30:45;;;;;;;4.65;1.30;;;;;;;19.02;40.47;102370.50;5000444;28;20148;-69
2022/12/27 12:33:56;;;;;;;4.55;1.30;;;;;;;19.03;40.48;102366.91;4994851;28;20442;-68
2022/12/27 12:36:52;;;;;;;3.45;1.20;;;;;;;19.07;40.65;102366.75;4991776;28;20129;-71
2022/12/27 12:39:36;;;;;;;4.50;1.50;;;;;;;19.05;40.41;102363.34;4991624;28;20483;-73
2022/12/27 12:42:26;;;;;;;5.53;1.33;;;;;;;18.97;40.25;102346.16;4993134;28;20034;-71
2022/12/27 12:45:05;;;;;;;3.00;1.20;;;;;;;19.05;40.45;102358.91;4988895;28;20491;-68
2022/12/27 12:47:47;;;;;;;4.47;1.42;;;;;;;19.02;40.33;102348.53;4993136;28;20093;-70
2022/12/27 12:50:31;;;;;;;5.55;1.38;;;;;;;19.02;40.57;102348.53;4999960;28;20038;-72
2022/12/27 12:53:18;;;;;;;3.58;1.30;;;;;;;19.01;40.34;102337.13;4994389;28;20501;-67
2022/12/27 12:56:02;;;;;;;5.68;2.10;;;;;;;18.99;40.43;102338.13;4991253;28;20040;-70
2022/12/27 12:58:36;;;;;;;5.95;1.45;;;;;;;19.02;40.49;102332.66;5004311;28;20420;-70
2022/12/27 13:01:27;;;;;;;3.75;1.23;;;;;;;18.99;40.40;102317.00;5002771;28;20149;-70
2022/12/27 13:04:08;;;;;;;3.38;1.05;;;;;;;18.99;40.38;102306.44;4993401;28;20121;-69
2022/12/27 13:07:04;;;;;;;4.50;1.30;;;;;;;19.02;40.22;102306.25;4990338;28;20025;-70
2022/12/27 13:09:32;;;;;;;4.60;1.30;;;;;;;18.99;40.09;102304.66;5004164;28;20034;-68
2022/12/27 13:12:07;;;;;;;4.40;1.35;;;;;;;18.97;40.15;102295.13;4987130;28;20049;-69
2022/12/27 13:15:00;;;;;;;3.92;1.25;;;;;;;18.99;40.23;102294.09;4988494;28;20103;-71
2022/12/27 13:17:54;;;;;;;4.00;1.48;;;;;;;18.97;40.45;102282.75;4999283;28;20034;-69
2022/12/27 13:20:49;;;;;;;3.80;1.30;;;;;;;19.01;40.33;102281.63;4987865;28;20038;-69
2022/12/27 13:23:14;;;;;;;;;;;;;;;19.05;40.22;102282.28;4984186;28;20109;-67
2022/12/27 13:25:48;;;;;;;3.43;1.30;;;;;;;18.97;40.08;102277.47;4988527;28;19917;-72
2022/12/27 13:28:51;;;;;;;3.75;1.17;;;;;;;19.02;40.36;102293.03;5003917;28;20038;-70